San Remo, Italy

10:04 AM CEST on August 04, 2015 (GMT +0200)
Arma di Taggia | | Change Station
CLOSE
Current Station
Personal Weather Station
Location: Taggia, LIGURIA
Elevation: 36 ft
Nearby Weather Stations

Elev 36 ft 43.83 °N, 7.86 °E | Updated 4 minutes ago

Clear
Clear
81.5 °F
Feels Like 83 °F
N
3.4
Wind Variable Wind from SSW
Gusts 3.4 mph

Today
High -- | Low -- °F
--% Chance of Precip.
Yesterday
High -- | Low -- °F
Precip. -- in
6:20 AM 8:49 PM
Waning Gibbous, 80% visible
Pressure 29.95 in
Visibility -9999.0 miles
Clouds
Heat Index 83 °F
Dew Point 64 °F
Humidity 53%
Rainfall 0.00 in
Snow Depth Not available.
UV Not available.
Pollen Not available.
Air Quality Not available.
Flu Activity Not available.
METAR LFMN 040800Z VRB03KT CAVOK 28/16 Q1014 NOSIG

More Conditions Fewer Conditions

Pressure 29.95 in
Visibility -9999.0 miles
Clouds
Heat Index 83 °F
Dew Point 64 °F
Humidity 53%
Rainfall 0.00 in
Snow Depth Not available.
UV Not available.
Pollen Not available.
Air Quality Not available.
Flu Activity Not available.
METAR LFMN 040800Z VRB03KT CAVOK 28/16 Q1014 NOSIG

More Conditions Fewer Conditions

10-Day Weather Forecast

×

Almanac

Astronomy

Aug. 04, 2015 Rise Set
Actual Time
Civil Twilight
Nautical Twilight
Astronomical Twilight
Moon
Length of Visible Light
Length of Day
Tomorrow will be .
, % of the Moon is Illuminated

Today's Extremes

Country Highs Country Lows

Community

WunderPhotos

Upload Photos

1,843,877 photos uploaded!

WunderBlogs® & News

Nearby

Air Quality

  Air Quality AQ Index Pollutant
Not available.

Snow Depth

Station Depth Elevation

Earthquake Activity

City Distance Mag. Time & Date
Minimum magnitude displayed is 2.5.

Coastal Water Temperatures

Place Temperature

Stations

Nearby Weather Stations

Station Location Temp. Windchill Dew Point Humidity Wind Precip. Elev Updated Type